sensor_id;sensor_type;location;lat;lon;timestamp;P1;durP1;ratioP1;P2;durP2;ratioP2
62941;SDS011;49042;47.318;19.874;2023-05-10T00:01:34;5.00;;;2.50;;
62941;SDS011;49042;47.318;19.874;2023-05-10T00:04:35;3.58;;;2.60;;
62941;SDS011;49042;47.318;19.874;2023-05-10T00:07:37;4.78;;;2.50;;
62941;SDS011;49042;47.318;19.874;2023-05-10T00:10:38;6.75;;;2.50;;
62941;SDS011;49042;47.318;19.874;2023-05-10T00:13:40;3.85;;;2.37;;
62941;SDS011;49042;47.318;19.874;2023-05-10T00:16:41;5.53;;;2.60;;
62941;SDS011;49042;47.318;19.874;2023-05-10T00:19:43;5.07;;;2.50;;
62941;SDS011;49042;47.318;19.874;2023-05-10T00:22:44;3.83;;;2.55;;
62941;SDS011;49042;47.318;19.874;2023-05-10T00:25:46;5.60;;;2.50;;
62941;SDS011;49042;47.318;19.874;2023-05-10T00:28:47;3.87;;;2.70;;
62941;SDS011;49042;47.318;19.874;2023-05-10T00:31:49;5.40;;;2.75;;
62941;SDS011;49042;47.318;19.874;2023-05-10T00:34:50;4.15;;;3.62;;
62941;SDS011;49042;47.318;19.874;2023-05-10T00:37:52;8.25;;;3.75;;
62941;SDS011;49042;47.318;19.874;2023-05-10T00:40:54;4.03;;;3.10;;
62941;SDS011;49042;47.318;19.874;2023-05-10T00:43:55;4.05;;;3.12;;
62941;SDS011;49042;47.318;19.874;2023-05-10T00:46:57;4.80;;;3.40;;
62941;SDS011;49042;47.318;19.874;2023-05-10T00:49:59;4.90;;;3.35;;
62941;SDS011;49042;47.318;19.874;2023-05-10T00:53:01;3.37;;;3.03;;
62941;SDS011;49042;47.318;19.874;2023-05-10T00:56:03;6.10;;;3.42;;
62941;SDS011;49042;47.318;19.874;2023-05-10T00:59:05;5.70;;;3.35;;
62941;SDS011;49042;47.318;19.874;2023-05-10T01:02:07;4.72;;;3.72;;
62941;SDS011;49042;47.318;19.874;2023-05-10T01:05:08;4.85;;;3.80;;
62941;SDS011;49042;47.318;19.874;2023-05-10T01:08:10;5.10;;;4.07;;
62941;SDS011;49042;47.318;19.874;2023-05-10T01:11:11;6.57;;;4.25;;
62941;SDS011;49042;47.318;19.874;2023-05-10T01:14:13;5.25;;;3.75;;
62941;SDS011;49042;47.318;19.874;2023-05-10T01:17:15;6.72;;;3.80;;
62941;SDS011;49042;47.318;19.874;2023-05-10T01:20:17;5.15;;;4.03;;
62941;SDS011;49042;47.318;19.874;2023-05-10T01:26:39;4.35;;;3.58;;
62941;SDS011;49042;47.318;19.874;2023-05-10T01:37:45;7.25;;;4.22;;
62941;SDS011;49042;47.318;19.874;2023-05-10T01:40:19;5.37;;;3.78;;
62941;SDS011;49042;47.318;19.874;2023-05-10T01:43:26;5.10;;;3.97;;
62941;SDS011;49042;47.318;19.874;2023-05-10T01:46:36;5.70;;;3.95;;
62941;SDS011;49042;47.318;19.874;2023-05-10T01:49:42;6.78;;;4.28;;
62941;SDS011;49042;47.318;19.874;2023-05-10T01:52:46;5.75;;;4.03;;
62941;SDS011;49042;47.318;19.874;2023-05-10T01:55:50;4.25;;;3.85;;
62941;SDS011;49042;47.318;19.874;2023-05-10T01:58:53;7.37;;;4.60;;
62941;SDS011;49042;47.318;19.874;2023-05-10T02:01:57;7.90;;;4.00;;
62941;SDS011;49042;47.318;19.874;2023-05-10T02:05:00;6.45;;;4.20;;
62941;SDS011;49042;47.318;19.874;2023-05-10T02:08:01;6.82;;;5.05;;
62941;SDS011;49042;47.318;19.874;2023-05-10T02:11:04;6.00;;;4.43;;
62941;SDS011;49042;47.318;19.874;2023-05-10T02:14:07;6.32;;;5.03;;
62941;SDS011;49042;47.318;19.874;2023-05-10T02:17:10;6.05;;;4.85;;
62941;SDS011;49042;47.318;19.874;2023-05-10T02:20:12;7.60;;;4.90;;
62941;SDS011;49042;47.318;19.874;2023-05-10T02:23:15;8.73;;;5.20;;
62941;SDS011;49042;47.318;19.874;2023-05-10T02:26:18;12.15;;;4.93;;
62941;SDS011;49042;47.318;19.874;2023-05-10T02:29:23;5.07;;;4.50;;
62941;SDS011;49042;47.318;19.874;2023-05-10T02:32:26;6.12;;;4.57;;
62941;SDS011;49042;47.318;19.874;2023-05-10T02:35:29;6.30;;;5.55;;
62941;SDS011;49042;47.318;19.874;2023-05-10T02:38:31;6.60;;;5.35;;
62941;SDS011;49042;47.318;19.874;2023-05-10T02:41:33;7.95;;;5.78;;
62941;SDS011;49042;47.318;19.874;2023-05-10T02:44:34;13.62;;;8.20;;
62941;SDS011;49042;47.318;19.874;2023-05-10T02:47:37;7.95;;;5.68;;
62941;SDS011;49042;47.318;19.874;2023-05-10T02:50:39;5.82;;;3.85;;
62941;SDS011;49042;47.318;19.874;2023-05-10T02:53:43;4.55;;;3.60;;
62941;SDS011;49042;47.318;19.874;2023-05-10T02:56:53;5.07;;;3.80;;
62941;SDS011;49042;47.318;19.874;2023-05-10T02:59:56;5.22;;;3.50;;
62941;SDS011;49042;47.318;19.874;2023-05-10T03:02:58;4.65;;;3.80;;
62941;SDS011;49042;47.318;19.874;2023-05-10T03:05:59;6.60;;;4.10;;
62941;SDS011;49042;47.318;19.874;2023-05-10T03:09:01;7.62;;;4.68;;
62941;SDS011;49042;47.318;19.874;2023-05-10T03:12:04;5.62;;;3.83;;
62941;SDS011;49042;47.318;19.874;2023-05-10T03:15:13;4.43;;;3.62;;
62941;SDS011;49042;47.318;19.874;2023-05-10T03:18:54;5.12;;;4.28;;
62941;SDS011;49042;47.318;19.874;2023-05-10T03:21:47;7.90;;;4.23;;
62941;SDS011;49042;47.318;19.874;2023-05-10T03:24:52;5.32;;;3.92;;
62941;SDS011;49042;47.318;19.874;2023-05-10T03:27:54;4.10;;;3.60;;
62941;SDS011;49042;47.318;19.874;2023-05-10T03:30:57;6.53;;;3.92;;
62941;SDS011;49042;47.318;19.874;2023-05-10T03:33:59;7.65;;;4.12;;
62941;SDS011;49042;47.318;19.874;2023-05-10T03:37:01;5.25;;;4.18;;
62941;SDS011;49042;47.318;19.874;2023-05-10T03:40:03;6.07;;;4.72;;
62941;SDS011;49042;47.318;19.874;2023-05-10T03:43:04;5.80;;;4.15;;
62941;SDS011;49042;47.318;19.874;2023-05-10T03:46:06;7.18;;;4.43;;
62941;SDS011;49042;47.318;19.874;2023-05-10T03:49:07;8.45;;;4.55;;
62941;SDS011;49042;47.318;19.874;2023-05-10T03:52:09;5.72;;;4.62;;
62941;SDS011;49042;47.318;19.874;2023-05-10T03:55:11;5.80;;;4.57;;
62941;SDS011;49042;47.318;19.874;2023-05-10T03:58:13;5.68;;;4.68;;
62941;SDS011;49042;47.318;19.874;2023-05-10T04:01:14;8.25;;;4.22;;
62941;SDS011;49042;47.318;19.874;2023-05-10T04:04:16;5.65;;;4.15;;
62941;SDS011;49042;47.318;19.874;2023-05-10T04:07:20;5.93;;;4.32;;
62941;SDS011;49042;47.318;19.874;2023-05-10T04:10:21;8.70;;;4.90;;
62941;SDS011;49042;47.318;19.874;2023-05-10T04:13:23;9.98;;;4.75;;
62941;SDS011;49042;47.318;19.874;2023-05-10T04:16:24;11.12;;;5.12;;
62941;SDS011;49042;47.318;19.874;2023-05-10T04:19:32;8.75;;;5.45;;
62941;SDS011;49042;47.318;19.874;2023-05-10T04:22:34;6.05;;;5.20;;
62941;SDS011;49042;47.318;19.874;2023-05-10T04:25:35;7.37;;;4.93;;
62941;SDS011;49042;47.318;19.874;2023-05-10T04:28:37;6.22;;;4.50;;
62941;SDS011;49042;47.318;19.874;2023-05-10T04:31:39;7.97;;;4.78;;
62941;SDS011;49042;47.318;19.874;2023-05-10T04:34:40;9.20;;;5.00;;
62941;SDS011;49042;47.318;19.874;2023-05-10T04:37:42;8.60;;;5.30;;
62941;SDS011;49042;47.318;19.874;2023-05-10T04:40:44;9.90;;;5.53;;
62941;SDS011;49042;47.318;19.874;2023-05-10T04:43:45;15.20;;;5.43;;
62941;SDS011;49042;47.318;19.874;2023-05-10T04:46:47;7.53;;;5.12;;
62941;SDS011;49042;47.318;19.874;2023-05-10T04:49:49;15.88;;;5.85;;
62941;SDS011;49042;47.318;19.874;2023-05-10T04:52:50;13.35;;;5.00;;
62941;SDS011;49042;47.318;19.874;2023-05-10T04:55:53;9.35;;;6.07;;
62941;SDS011;49042;47.318;19.874;2023-05-10T04:58:55;8.05;;;5.15;;
62941;SDS011;49042;47.318;19.874;2023-05-10T05:01:56;15.93;;;5.43;;
62941;SDS011;49042;47.318;19.874;2023-05-10T05:04:58;9.10;;;5.87;;
62941;SDS011;49042;47.318;19.874;2023-05-10T05:07:59;15.48;;;6.20;;
62941;SDS011;49042;47.318;19.874;2023-05-10T05:11:01;8.88;;;5.40;;
62941;SDS011;49042;47.318;19.874;2023-05-10T05:14:03;10.63;;;5.90;;
62941;SDS011;49042;47.318;19.874;2023-05-10T05:17:04;6.45;;;5.12;;
62941;SDS011;49042;47.318;19.874;2023-05-10T05:20:06;9.13;;;5.28;;
62941;SDS011;49042;47.318;19.874;2023-05-10T05:23:08;8.27;;;5.05;;
62941;SDS011;49042;47.318;19.874;2023-05-10T05:26:10;12.40;;;5.20;;
62941;SDS011;49042;47.318;19.874;2023-05-10T05:29:11;12.82;;;5.57;;
62941;SDS011;49042;47.318;19.874;2023-05-10T05:32:13;11.80;;;6.18;;
62941;SDS011;49042;47.318;19.874;2023-05-10T05:35:15;7.32;;;5.30;;
62941;SDS011;49042;47.318;19.874;2023-05-10T05:38:17;10.30;;;4.72;;
62941;SDS011;49042;47.318;19.874;2023-05-10T05:41:18;8.55;;;4.47;;
62941;SDS011;49042;47.318;19.874;2023-05-10T05:44:21;9.07;;;4.68;;
62941;SDS011;49042;47.318;19.874;2023-05-10T05:47:22;9.80;;;4.75;;
62941;SDS011;49042;47.318;19.874;2023-05-10T05:50:24;13.13;;;4.85;;
62941;SDS011;49042;47.318;19.874;2023-05-10T05:53:25;15.40;;;5.75;;
62941;SDS011;49042;47.318;19.874;2023-05-10T05:56:27;7.75;;;5.20;;
62941;SDS011;49042;47.318;19.874;2023-05-10T05:59:29;8.43;;;4.93;;
62941;SDS011;49042;47.318;19.874;2023-05-10T06:02:30;14.75;;;4.72;;
62941;SDS011;49042;47.318;19.874;2023-05-10T06:05:32;7.43;;;4.40;;
62941;SDS011;49042;47.318;19.874;2023-05-10T06:08:34;14.85;;;5.72;;
62941;SDS011;49042;47.318;19.874;2023-05-10T06:11:35;5.75;;;4.70;;
62941;SDS011;49042;47.318;19.874;2023-05-10T06:14:37;9.32;;;5.10;;
62941;SDS011;49042;47.318;19.874;2023-05-10T06:17:38;7.60;;;4.72;;
62941;SDS011;49042;47.318;19.874;2023-05-10T06:20:41;7.22;;;4.82;;
62941;SDS011;49042;47.318;19.874;2023-05-10T06:23:43;8.73;;;4.80;;
62941;SDS011;49042;47.318;19.874;2023-05-10T06:26:45;6.07;;;4.62;;
62941;SDS011;49042;47.318;19.874;2023-05-10T06:29:46;5.55;;;4.20;;
62941;SDS011;49042;47.318;19.874;2023-05-10T06:32:50;12.82;;;5.05;;
62941;SDS011;49042;47.318;19.874;2023-05-10T06:35:53;8.05;;;4.75;;
62941;SDS011;49042;47.318;19.874;2023-05-10T06:38:54;5.07;;;4.50;;
62941;SDS011;49042;47.318;19.874;2023-05-10T06:41:56;8.65;;;4.53;;
62941;SDS011;49042;47.318;19.874;2023-05-10T06:44:57;4.87;;;4.12;;
62941;SDS011;49042;47.318;19.874;2023-05-10T06:47:59;13.50;;;5.12;;
62941;SDS011;49042;47.318;19.874;2023-05-10T06:51:01;5.95;;;4.07;;
62941;SDS011;49042;47.318;19.874;2023-05-10T06:54:02;5.55;;;3.97;;
62941;SDS011;49042;47.318;19.874;2023-05-10T06:57:04;8.18;;;4.70;;
62941;SDS011;49042;47.318;19.874;2023-05-10T07:00:17;5.20;;;4.30;;
62941;SDS011;49042;47.318;19.874;2023-05-10T07:03:19;7.90;;;4.43;;
62941;SDS011;49042;47.318;19.874;2023-05-10T07:06:20;5.87;;;4.20;;
62941;SDS011;49042;47.318;19.874;2023-05-10T07:09:33;11.38;;;4.95;;
62941;SDS011;49042;47.318;19.874;2023-05-10T07:12:35;10.88;;;4.18;;
62941;SDS011;49042;47.318;19.874;2023-05-10T07:15:37;8.88;;;4.03;;
62941;SDS011;49042;47.318;19.874;2023-05-10T07:18:38;4.95;;;4.05;;
62941;SDS011;49042;47.318;19.874;2023-05-10T07:21:40;4.90;;;3.65;;
62941;SDS011;49042;47.318;19.874;2023-05-10T07:24:43;6.12;;;3.53;;
62941;SDS011;49042;47.318;19.874;2023-05-10T07:27:45;6.65;;;3.47;;
62941;SDS011;49042;47.318;19.874;2023-05-10T07:30:49;5.28;;;3.40;;
62941;SDS011;49042;47.318;19.874;2023-05-10T07:33:51;3.92;;;3.12;;
62941;SDS011;49042;47.318;19.874;2023-05-10T07:36:52;9.52;;;3.55;;
62941;SDS011;49042;47.318;19.874;2023-05-10T07:39:54;5.53;;;2.83;;
62941;SDS011;49042;47.318;19.874;2023-05-10T07:42:55;4.00;;;3.22;;
62941;SDS011;49042;47.318;19.874;2023-05-10T07:45:57;3.83;;;3.03;;
62941;SDS011;49042;47.318;19.874;2023-05-10T07:49:01;4.55;;;2.90;;
62941;SDS011;49042;47.318;19.874;2023-05-10T07:52:03;6.65;;;3.20;;
62941;SDS011;49042;47.318;19.874;2023-05-10T07:55:04;4.93;;;3.20;;
62941;SDS011;49042;47.318;19.874;2023-05-10T07:58:06;4.90;;;2.90;;
62941;SDS011;49042;47.318;19.874;2023-05-10T08:01:08;3.37;;;2.45;;
62941;SDS011;49042;47.318;19.874;2023-05-10T08:04:09;6.60;;;2.62;;
62941;SDS011;49042;47.318;19.874;2023-05-10T08:07:11;6.40;;;2.40;;
62941;SDS011;49042;47.318;19.874;2023-05-10T08:10:13;3.03;;;2.20;;
62941;SDS011;49042;47.318;19.874;2023-05-10T08:13:14;2.42;;;2.20;;
62941;SDS011;49042;47.318;19.874;2023-05-10T08:16:16;2.97;;;2.30;;
62941;SDS011;49042;47.318;19.874;2023-05-10T08:19:18;2.62;;;1.95;;
62941;SDS011;49042;47.318;19.874;2023-05-10T08:22:20;3.03;;;2.00;;
62941;SDS011;49042;47.318;19.874;2023-05-10T08:25:22;11.12;;;2.30;;
62941;SDS011;49042;47.318;19.874;2023-05-10T08:28:24;4.97;;;2.20;;
62941;SDS011;49042;47.318;19.874;2023-05-10T08:31:25;5.95;;;2.20;;
62941;SDS011;49042;47.318;19.874;2023-05-10T08:34:27;4.43;;;2.20;;
62941;SDS011;49042;47.318;19.874;2023-05-10T08:37:29;4.00;;;2.28;;
62941;SDS011;49042;47.318;19.874;2023-05-10T08:40:31;3.12;;;2.03;;
62941;SDS011;49042;47.318;19.874;2023-05-10T08:43:33;3.55;;;2.00;;
62941;SDS011;49042;47.318;19.874;2023-05-10T08:46:37;3.33;;;2.25;;
62941;SDS011;49042;47.318;19.874;2023-05-10T08:49:41;3.50;;;2.03;;
62941;SDS011;49042;47.318;19.874;2023-05-10T08:52:42;6.05;;;1.90;;
62941;SDS011;49042;47.318;19.874;2023-05-10T08:55:45;3.65;;;2.40;;
62941;SDS011;49042;47.318;19.874;2023-05-10T08:58:47;5.25;;;2.40;;
62941;SDS011;49042;47.318;19.874;2023-05-10T09:01:50;2.30;;;2.10;;
62941;SDS011;49042;47.318;19.874;2023-05-10T09:04:51;3.40;;;2.05;;
62941;SDS011;49042;47.318;19.874;2023-05-10T09:07:53;3.97;;;2.08;;
62941;SDS011;49042;47.318;19.874;2023-05-10T09:10:55;4.85;;;2.15;;
62941;SDS011;49042;47.318;19.874;2023-05-10T09:13:56;4.10;;;2.35;;
62941;SDS011;49042;47.318;19.874;2023-05-10T09:16:58;2.47;;;2.05;;
62941;SDS011;49042;47.318;19.874;2023-05-10T09:20:00;3.58;;;2.00;;
62941;SDS011;49042;47.318;19.874;2023-05-10T09:23:02;2.28;;;2.03;;
62941;SDS011;49042;47.318;19.874;2023-05-10T09:26:04;2.17;;;1.87;;
62941;SDS011;49042;47.318;19.874;2023-05-10T09:29:06;3.58;;;1.62;;
62941;SDS011;49042;47.318;19.874;2023-05-10T09:32:09;2.62;;;2.00;;
62941;SDS011;49042;47.318;19.874;2023-05-10T09:35:12;2.90;;;2.40;;
62941;SDS011;49042;47.318;19.874;2023-05-10T09:38:13;3.78;;;1.60;;
62941;SDS011;49042;47.318;19.874;2023-05-10T09:41:16;4.22;;;1.90;;
62941;SDS011;49042;47.318;19.874;2023-05-10T09:44:18;2.58;;;1.90;;
62941;SDS011;49042;47.318;19.874;2023-05-10T09:47:20;2.08;;;1.87;;
62941;SDS011;49042;47.318;19.874;2023-05-10T09:50:22;2.33;;;1.87;;
62941;SDS011;49042;47.318;19.874;2023-05-10T09:53:24;4.57;;;2.30;;
62941;SDS011;49042;47.318;19.874;2023-05-10T09:56:35;3.92;;;1.92;;
62941;SDS011;49042;47.318;19.874;2023-05-10T09:59:44;8.82;;;2.03;;
62941;SDS011;49042;47.318;19.874;2023-05-10T10:02:47;6.80;;;2.10;;
62941;SDS011;49042;47.318;19.874;2023-05-10T10:05:49;2.60;;;1.80;;
62941;SDS011;49042;47.318;19.874;2023-05-10T10:08:51;2.20;;;1.60;;
62941;SDS011;49042;47.318;19.874;2023-05-10T10:11:57;2.05;;;1.58;;
62941;SDS011;49042;47.318;19.874;2023-05-10T10:14:59;4.65;;;1.40;;
62941;SDS011;49042;47.318;19.874;2023-05-10T10:18:00;2.65;;;1.40;;
62941;SDS011;49042;47.318;19.874;2023-05-10T10:21:02;2.22;;;1.67;;
62941;SDS011;49042;47.318;19.874;2023-05-10T10:24:04;1.40;;;1.30;;
62941;SDS011;49042;47.318;19.874;2023-05-10T10:36:51;4.22;;;1.30;;
62941;SDS011;49042;47.318;19.874;2023-05-10T10:39:53;7.05;;;1.73;;
62941;SDS011;49042;47.318;19.874;2023-05-10T10:42:57;7.62;;;1.60;;
62941;SDS011;49042;47.318;19.874;2023-05-10T10:49:15;2.70;;;1.47;;
62941;SDS011;49042;47.318;19.874;2023-05-10T10:52:22;4.90;;;1.80;;
62941;SDS011;49042;47.318;19.874;2023-05-10T10:55:24;2.33;;;1.60;;
62941;SDS011;49042;47.318;19.874;2023-05-10T10:58:30;2.35;;;1.40;;
62941;SDS011;49042;47.318;19.874;2023-05-10T11:01:35;5.20;;;1.80;;
62941;SDS011;49042;47.318;19.874;2023-05-10T11:04:41;2.87;;;1.50;;
62941;SDS011;49042;47.318;19.874;2023-05-10T11:07:53;2.85;;;1.25;;
62941;SDS011;49042;47.318;19.874;2023-05-10T11:14:04;2.05;;;1.37;;
62941;SDS011;49042;47.318;19.874;2023-05-10T11:17:23;4.05;;;1.70;;
62941;SDS011;49042;47.318;19.874;2023-05-10T11:20:28;2.47;;;1.23;;
62941;SDS011;49042;47.318;19.874;2023-05-10T11:23:48;1.85;;;1.20;;
62941;SDS011;49042;47.318;19.874;2023-05-10T11:26:50;3.33;;;1.42;;
62941;SDS011;49042;47.318;19.874;2023-05-10T11:29:53;1.90;;;1.40;;
62941;SDS011;49042;47.318;19.874;2023-05-10T11:32:54;2.55;;;1.30;;
62941;SDS011;49042;47.318;19.874;2023-05-10T11:35:56;2.80;;;1.37;;
62941;SDS011;49042;47.318;19.874;2023-05-10T11:38:58;2.53;;;1.30;;
62941;SDS011;49042;47.318;19.874;2023-05-10T11:41:59;6.30;;;1.45;;
62941;SDS011;49042;47.318;19.874;2023-05-10T11:45:01;3.53;;;1.33;;
62941;SDS011;49042;47.318;19.874;2023-05-10T11:48:02;3.37;;;1.67;;
62941;SDS011;49042;47.318;19.874;2023-05-10T11:51:04;3.37;;;1.50;;
62941;SDS011;49042;47.318;19.874;2023-05-10T11:54:07;2.42;;;1.62;;
62941;SDS011;49042;47.318;19.874;2023-05-10T11:57:11;2.75;;;1.55;;
62941;SDS011;49042;47.318;19.874;2023-05-10T12:00:13;1.95;;;1.30;;
62941;SDS011;49042;47.318;19.874;2023-05-10T12:03:15;1.95;;;1.30;;
62941;SDS011;49042;47.318;19.874;2023-05-10T12:06:20;1.33;;;1.20;;
62941;SDS011;49042;47.318;19.874;2023-05-10T12:09:22;1.45;;;1.10;;
62941;SDS011;49042;47.318;19.874;2023-05-10T12:12:35;1.58;;;1.25;;
62941;SDS011;49042;47.318;19.874;2023-05-10T12:15:36;4.43;;;1.40;;
62941;SDS011;49042;47.318;19.874;2023-05-10T12:18:38;1.77;;;1.00;;
62941;SDS011;49042;47.318;19.874;2023-05-10T12:21:41;3.92;;;1.60;;
62941;SDS011;49042;47.318;19.874;2023-05-10T12:24:42;3.17;;;1.60;;
62941;SDS011;49042;47.318;19.874;2023-05-10T12:27:56;1.70;;;1.20;;
62941;SDS011;49042;47.318;19.874;2023-05-10T12:31:15;2.53;;;1.25;;
62941;SDS011;49042;47.318;19.874;2023-05-10T12:37:27;2.10;;;1.10;;
62941;SDS011;49042;47.318;19.874;2023-05-10T12:40:28;5.50;;;1.35;;
62941;SDS011;49042;47.318;19.874;2023-05-10T12:43:30;6.05;;;1.20;;
62941;SDS011;49042;47.318;19.874;2023-05-10T12:46:32;1.10;;;1.00;;
62941;SDS011;49042;47.318;19.874;2023-05-10T12:49:33;2.00;;;1.00;;
62941;SDS011;49042;47.318;19.874;2023-05-10T12:52:35;1.80;;;1.02;;
62941;SDS011;49042;47.318;19.874;2023-05-10T12:55:37;1.95;;;1.23;;
62941;SDS011;49042;47.318;19.874;2023-05-10T12:58:38;3.67;;;1.00;;
62941;SDS011;49042;47.318;19.874;2023-05-10T13:01:39;2.55;;;1.12;;
62941;SDS011;49042;47.318;19.874;2023-05-10T13:04:41;2.40;;;1.40;;
62941;SDS011;49042;47.318;19.874;2023-05-10T13:07:43;1.17;;;0.80;;
62941;SDS011;49042;47.318;19.874;2023-05-10T13:10:45;7.07;;;1.33;;
62941;SDS011;49042;47.318;19.874;2023-05-10T13:13:46;10.52;;;1.40;;
62941;SDS011;49042;47.318;19.874;2023-05-10T13:16:48;1.00;;;0.90;;
62941;SDS011;49042;47.318;19.874;2023-05-10T13:19:49;1.83;;;1.02;;
62941;SDS011;49042;47.318;19.874;2023-05-10T13:22:51;6.15;;;1.37;;
62941;SDS011;49042;47.318;19.874;2023-05-10T13:25:52;2.50;;;1.02;;
62941;SDS011;49042;47.318;19.874;2023-05-10T13:28:54;1.87;;;1.15;;
62941;SDS011;49042;47.318;19.874;2023-05-10T13:31:56;1.70;;;1.20;;
62941;SDS011;49042;47.318;19.874;2023-05-10T13:34:58;1.92;;;1.20;;
62941;SDS011;49042;47.318;19.874;2023-05-10T13:37:59;3.95;;;1.62;;
62941;SDS011;49042;47.318;19.874;2023-05-10T13:41:01;4.60;;;1.52;;
62941;SDS011;49042;47.318;19.874;2023-05-10T13:44:02;1.73;;;1.23;;
62941;SDS011;49042;47.318;19.874;2023-05-10T13:47:04;2.25;;;1.67;;
62941;SDS011;49042;47.318;19.874;2023-05-10T13:50:06;3.33;;;1.48;;
62941;SDS011;49042;47.318;19.874;2023-05-10T13:53:07;2.22;;;1.67;;
62941;SDS011;49042;47.318;19.874;2023-05-10T13:56:09;2.65;;;1.40;;
62941;SDS011;49042;47.318;19.874;2023-05-10T13:59:10;4.40;;;1.40;;
62941;SDS011;49042;47.318;19.874;2023-05-10T14:02:12;4.25;;;1.45;;
62941;SDS011;49042;47.318;19.874;2023-05-10T14:05:14;4.22;;;2.80;;
62941;SDS011;49042;47.318;19.874;2023-05-10T14:08:17;3.87;;;1.40;;
62941;SDS011;49042;47.318;19.874;2023-05-10T14:11:18;2.53;;;1.40;;
62941;SDS011;49042;47.318;19.874;2023-05-10T14:14:23;2.00;;;1.50;;
62941;SDS011;49042;47.318;19.874;2023-05-10T14:17:24;8.38;;;1.75;;
62941;SDS011;49042;47.318;19.874;2023-05-10T14:20:26;3.80;;;1.90;;
62941;SDS011;49042;47.318;19.874;2023-05-10T14:23:27;2.25;;;1.58;;
62941;SDS011;49042;47.318;19.874;2023-05-10T14:26:30;4.87;;;1.95;;
62941;SDS011;49042;47.318;19.874;2023-05-10T14:29:31;5.18;;;1.50;;
62941;SDS011;49042;47.318;19.874;2023-05-10T14:32:33;2.83;;;1.58;;
62941;SDS011;49042;47.318;19.874;2023-05-10T14:35:35;3.12;;;1.65;;
62941;SDS011;49042;47.318;19.874;2023-05-10T14:38:37;3.50;;;1.83;;
62941;SDS011;49042;47.318;19.874;2023-05-10T14:41:38;1.90;;;1.70;;
62941;SDS011;49042;47.318;19.874;2023-05-10T14:44:42;5.55;;;2.00;;
62941;SDS011;49042;47.318;19.874;2023-05-10T14:47:43;4.15;;;1.77;;
62941;SDS011;49042;47.318;19.874;2023-05-10T14:50:44;3.45;;;1.90;;
62941;SDS011;49042;47.318;19.874;2023-05-10T14:53:46;4.47;;;2.10;;
62941;SDS011;49042;47.318;19.874;2023-05-10T14:56:47;3.45;;;1.50;;
62941;SDS011;49042;47.318;19.874;2023-05-10T14:59:51;3.03;;;1.67;;
62941;SDS011;49042;47.318;19.874;2023-05-10T15:02:53;3.70;;;1.70;;
62941;SDS011;49042;47.318;19.874;2023-05-10T15:05:55;2.95;;;1.67;;
62941;SDS011;49042;47.318;19.874;2023-05-10T15:08:58;4.65;;;1.83;;
62941;SDS011;49042;47.318;19.874;2023-05-10T15:12:00;15.30;;;4.90;;
62941;SDS011;49042;47.318;19.874;2023-05-10T15:15:02;9.38;;;5.75;;
62941;SDS011;49042;47.318;19.874;2023-05-10T15:18:04;11.10;;;7.45;;
62941;SDS011;49042;47.318;19.874;2023-05-10T15:21:06;5.25;;;2.12;;
62941;SDS011;49042;47.318;19.874;2023-05-10T15:24:08;5.47;;;2.50;;
62941;SDS011;49042;47.318;19.874;2023-05-10T15:27:10;2.53;;;1.70;;
62941;SDS011;49042;47.318;19.874;2023-05-10T15:30:11;2.83;;;1.55;;
62941;SDS011;49042;47.318;19.874;2023-05-10T15:33:13;16.00;;;2.03;;
62941;SDS011;49042;47.318;19.874;2023-05-10T15:36:14;3.30;;;1.50;;
62941;SDS011;49042;47.318;19.874;2023-05-10T15:39:18;3.62;;;1.50;;
62941;SDS011;49042;47.318;19.874;2023-05-10T15:42:19;4.43;;;1.67;;
62941;SDS011;49042;47.318;19.874;2023-05-10T15:45:21;3.03;;;1.52;;
62941;SDS011;49042;47.318;19.874;2023-05-10T15:48:22;6.40;;;1.70;;
62941;SDS011;49042;47.318;19.874;2023-05-10T15:51:24;10.02;;;1.90;;
62941;SDS011;49042;47.318;19.874;2023-05-10T15:54:26;6.43;;;2.87;;
62941;SDS011;49042;47.318;19.874;2023-05-10T15:57:27;6.65;;;3.40;;
62941;SDS011;49042;47.318;19.874;2023-05-10T16:00:29;7.05;;;4.30;;
62941;SDS011;49042;47.318;19.874;2023-05-10T16:03:32;2.72;;;1.80;;
62941;SDS011;49042;47.318;19.874;2023-05-10T16:06:37;19.50;;;2.55;;
62941;SDS011;49042;47.318;19.874;2023-05-10T16:09:39;2.35;;;1.65;;
62941;SDS011;49042;47.318;19.874;2023-05-10T16:12:41;1.65;;;1.40;;
62941;SDS011;49042;47.318;19.874;2023-05-10T16:15:43;1.50;;;1.30;;
62941;SDS011;49042;47.318;19.874;2023-05-10T16:18:44;2.28;;;1.58;;
62941;SDS011;49042;47.318;19.874;2023-05-10T16:21:46;4.18;;;1.50;;
62941;SDS011;49042;47.318;19.874;2023-05-10T16:24:47;3.08;;;1.85;;
62941;SDS011;49042;47.318;19.874;2023-05-10T16:27:49;4.68;;;1.60;;
62941;SDS011;49042;47.318;19.874;2023-05-10T16:30:51;4.03;;;1.50;;
62941;SDS011;49042;47.318;19.874;2023-05-10T16:33:53;4.78;;;1.55;;
62941;SDS011;49042;47.318;19.874;2023-05-10T16:36:54;5.65;;;1.75;;
62941;SDS011;49042;47.318;19.874;2023-05-10T16:39:56;5.97;;;1.33;;
62941;SDS011;49042;47.318;19.874;2023-05-10T16:42:57;3.15;;;2.10;;
62941;SDS011;49042;47.318;19.874;2023-05-10T16:45:59;8.32;;;2.50;;
62941;SDS011;49042;47.318;19.874;2023-05-10T16:49:01;5.18;;;2.97;;
62941;SDS011;49042;47.318;19.874;2023-05-10T16:52:02;5.03;;;3.05;;
62941;SDS011;49042;47.318;19.874;2023-05-10T16:55:04;7.78;;;2.55;;
62941;SDS011;49042;47.318;19.874;2023-05-10T16:58:06;6.50;;;2.22;;
62941;SDS011;49042;47.318;19.874;2023-05-10T17:01:07;4.12;;;2.08;;
62941;SDS011;49042;47.318;19.874;2023-05-10T17:04:09;5.40;;;2.20;;
62941;SDS011;49042;47.318;19.874;2023-05-10T17:07:11;5.93;;;2.22;;
62941;SDS011;49042;47.318;19.874;2023-05-10T17:10:13;10.55;;;2.12;;
62941;SDS011;49042;47.318;19.874;2023-05-10T17:13:15;4.40;;;2.42;;
62941;SDS011;49042;47.318;19.874;2023-05-10T17:16:17;5.70;;;2.10;;
62941;SDS011;49042;47.318;19.874;2023-05-10T17:19:19;6.80;;;2.10;;
62941;SDS011;49042;47.318;19.874;2023-05-10T17:22:20;7.32;;;2.08;;
62941;SDS011;49042;47.318;19.874;2023-05-10T17:25:22;5.18;;;1.90;;
62941;SDS011;49042;47.318;19.874;2023-05-10T17:28:23;1.98;;;1.62;;
62941;SDS011;49042;47.318;19.874;2023-05-10T17:31:25;2.53;;;1.67;;
62941;SDS011;49042;47.318;19.874;2023-05-10T17:34:27;1.80;;;1.45;;
62941;SDS011;49042;47.318;19.874;2023-05-10T17:37:28;3.00;;;1.80;;
62941;SDS011;49042;47.318;19.874;2023-05-10T17:40:30;5.07;;;1.50;;
62941;SDS011;49042;47.318;19.874;2023-05-10T17:43:32;7.30;;;1.92;;
62941;SDS011;49042;47.318;19.874;2023-05-10T17:46:33;5.07;;;1.83;;
62941;SDS011;49042;47.318;19.874;2023-05-10T17:49:35;4.30;;;1.90;;
62941;SDS011;49042;47.318;19.874;2023-05-10T17:52:36;3.05;;;1.95;;
62941;SDS011;49042;47.318;19.874;2023-05-10T17:55:39;2.75;;;1.77;;
62941;SDS011;49042;47.318;19.874;2023-05-10T17:58:41;4.07;;;2.17;;
62941;SDS011;49042;47.318;19.874;2023-05-10T18:01:42;3.37;;;1.90;;
62941;SDS011;49042;47.318;19.874;2023-05-10T18:04:44;2.15;;;1.80;;
62941;SDS011;49042;47.318;19.874;2023-05-10T18:07:46;2.22;;;1.83;;
62941;SDS011;49042;47.318;19.874;2023-05-10T18:10:48;2.53;;;1.90;;
62941;SDS011;49042;47.318;19.874;2023-05-10T18:13:49;4.35;;;1.98;;
62941;SDS011;49042;47.318;19.874;2023-05-10T18:16:51;8.02;;;3.87;;
62941;SDS011;49042;47.318;19.874;2023-05-10T18:19:53;6.68;;;4.00;;
62941;SDS011;49042;47.318;19.874;2023-05-10T18:22:54;11.32;;;4.55;;
62941;SDS011;49042;47.318;19.874;2023-05-10T18:25:57;7.03;;;3.95;;
62941;SDS011;49042;47.318;19.874;2023-05-10T18:28:58;9.13;;;4.12;;
62941;SDS011;49042;47.318;19.874;2023-05-10T18:32:02;8.18;;;3.83;;